Time;durP1;ratioP1;P1;durP2;ratioP2;P2;SDS_P1;SDS_P2;PMS_P1;PMS_P2;Temp;Humidity;BMP_temperature;BMP_pressure;BME280_temperature;BME280_humidity;BME280_pressure;Samples;Min_cycle;Max_cycle;Signal;HPM_P1;HPM_P2
2022/01/05 00:00:08;;;;;;;5.40;3.80;;;7.40;1.00;;;;;;5069881;28;20452;-77
2022/01/05 00:02:39;;;;;;;6.30;3.90;;;;;;;;;;5063103;28;20432;-77
2022/01/05 00:05:06;;;;;;;5.70;4.20;;;7.40;1.00;;;;;;5058283;28;20445;-77
2022/01/05 00:07:31;;;;;;;5.07;3.73;;;7.40;1.00;;;;;;5068596;28;20457;-77
2022/01/05 00:09:58;;;;;;;6.43;4.10;;;7.40;1.00;;;;;;5059572;28;20924;-77
2022/01/05 00:12:24;;;;;;;4.13;3.70;;;;;;;;;;5064123;28;20428;-77
2022/01/05 00:14:50;;;;;;;5.87;4.03;;;;;;;;;;5058586;28;20430;-77
2022/01/05 00:17:16;;;;;;;10.80;4.40;;;;;;;;;;5061540;28;20429;-77
2022/01/05 00:19:43;;;;;;;6.30;4.27;;;7.40;1.00;;;;;;5064708;28;20426;-77
2022/01/05 00:22:10;;;;;;;5.70;3.90;;;7.40;1.00;;;;;;5076154;28;20825;-77
2022/01/05 00:24:36;;;;;;;4.27;3.87;;;7.40;1.00;;;;;;5065900;28;20429;-77
2022/01/05 00:27:02;;;;;;;5.83;4.00;;;7.40;1.00;;;;;;5068031;28;20504;-77
2022/01/05 00:29:28;;;;;;;5.73;3.60;;;;;;;;;;5065296;28;21006;-77
2022/01/05 00:31:54;;;;;;;8.00;4.40;;;7.40;1.00;;;;;;5070995;28;20509;-77
2022/01/05 00:34:20;;;;;;;3.80;3.40;;;7.50;1.00;;;;;;5068511;28;20826;-77
2022/01/05 00:36:49;;;;;;;5.50;3.97;;;7.40;1.00;;;;;;5073091;28;20186;-77
2022/01/05 00:39:15;;;;;;;6.83;4.27;;;7.40;1.00;;;;;;5068969;28;20180;-77
2022/01/05 00:41:41;;;;;;;5.87;3.63;;;7.40;1.00;;;;;;5064014;28;20848;-77
2022/01/05 00:44:06;;;;;;;3.67;3.10;;;7.40;1.00;;;;;;5061492;28;20187;-77
2022/01/05 00:46:32;;;;;;;3.53;3.23;;;7.50;1.00;;;;;;5069323;28;20191;-80
2022/01/05 00:49:02;;;;;;;2.80;2.60;;;7.40;1.00;;;;;;5071076;28;20366;-79
2022/01/05 00:51:27;;;;;;;5.53;3.60;;;7.40;1.00;;;;;;5070388;28;20223;-79
2022/01/05 00:53:53;;;;;;;5.90;3.40;;;7.40;1.00;;;;;;5055585;28;20492;-78
2022/01/05 00:56:19;;;;;;;7.00;3.43;;;;;;;;;;5054658;28;20182;-79
2022/01/05 00:58:45;;;;;;;4.70;3.37;;;;;;;;;;5055049;28;20199;-78
2022/01/05 01:01:11;;;;;;;4.00;3.03;;;;;;;;;;5055324;28;20421;-79
2022/01/05 01:03:39;;;;;;;5.20;3.50;;;;;;;;;;5059011;28;20433;-79
2022/01/05 01:06:05;;;;;;;3.30;3.00;;;;;;;;;;5067076;28;20749;-79
2022/01/05 01:08:31;;;;;;;4.20;3.47;;;;;;;;;;5064566;28;20427;-79
2022/01/05 01:10:57;;;;;;;5.00;3.63;;;;;;;;;;5068152;28;20421;-79
2022/01/05 01:13:23;;;;;;;5.10;3.53;;;;;;;;;;5059359;28;20568;-79
2022/01/05 01:15:51;;;;;;;15.13;3.70;;;7.40;1.00;;;;;;5071279;28;20424;-77
2022/01/05 01:18:17;;;;;;;2.50;2.30;;;7.40;1.00;;;;;;5060349;28;20431;-77
2022/01/05 01:20:43;;;;;;;5.50;3.60;;;;;;;;;;5071739;28;20437;-77
2022/01/05 01:23:10;;;;;;;4.30;3.73;;;7.40;1.00;;;;;;5073024;28;20464;-77
2022/01/05 01:25:36;;;;;;;6.43;3.30;;;7.40;1.00;;;;;;5072516;28;20437;-77
2022/01/05 01:28:02;;;;;;;4.00;3.00;;;7.30;1.00;;;;;;5070742;28;20430;-77
2022/01/05 01:30:31;;;;;;;4.03;3.50;;;7.40;1.00;;;;;;5054938;28;20537;-77
2022/01/05 01:32:57;;;;;;;4.20;3.73;;;7.30;1.00;;;;;;5058929;28;20473;-77
2022/01/05 01:35:22;;;;;;;4.17;3.33;;;7.40;1.00;;;;;;5057910;28;20777;-78
2022/01/05 01:37:48;;;;;;;3.70;3.40;;;7.30;1.00;;;;;;5060673;28;20934;-77
2022/01/05 01:40:14;;;;;;;4.87;4.10;;;7.40;1.00;;;;;;5055624;28;20184;-77
2022/01/05 01:42:40;;;;;;;6.30;3.73;;;;;;;;;;5068892;28;20191;-77
2022/01/05 01:45:06;;;;;;;5.17;3.50;;;7.30;1.00;;;;;;5057028;28;20468;-78
2022/01/05 01:47:32;;;;;;;4.93;3.07;;;7.30;1.00;;;;;;5057874;28;20433;-77
2022/01/05 01:49:58;;;;;;;4.63;3.50;;;7.30;1.00;;;;;;5063142;28;20442;-77
2022/01/05 01:52:23;;;;;;;3.90;2.97;;;7.30;1.00;;;;;;5060821;28;20429;-77
2022/01/05 01:54:51;;;;;;;2.60;2.40;;;7.30;1.00;;;;;;5063182;28;20635;-77
2022/01/05 01:57:20;;;;;;;3.83;3.43;;;7.30;1.00;;;;;;5064405;28;20665;-77
2022/01/05 01:59:50;;;;;;;3.47;2.80;;;7.30;1.00;;;;;;5061452;28;20495;-77
2022/01/05 02:02:17;;;;;;;4.90;3.40;;;7.30;1.00;;;;;;5059269;28;20445;-77
2022/01/05 02:04:43;;;;;;;5.00;3.30;;;7.30;1.00;;;;;;5060100;28;20422;-77
2022/01/05 02:07:13;;;;;;;3.33;2.90;;;7.30;1.00;;;;;;5059252;28;20470;-77
2022/01/05 02:09:40;;;;;;;3.07;2.73;;;7.30;1.00;;;;;;5063877;28;20421;-77
2022/01/05 02:12:07;;;;;;;3.47;2.87;;;7.20;1.00;;;;;;5053882;28;21017;-77
2022/01/05 02:14:33;;;;;;;5.70;2.87;;;7.20;1.00;;;;;;5057011;28;20491;-77
2022/01/05 02:17:02;;;;;;;2.57;2.40;;;7.20;1.00;;;;;;5066691;28;20426;-78
2022/01/05 02:19:28;;;;;;;2.90;2.67;;;7.20;1.00;;;;;;5057110;28;20446;-78
2022/01/05 02:21:54;;;;;;;4.30;2.30;;;7.20;1.00;;;;;;5067930;28;20426;-79
2022/01/05 02:24:20;;;;;;;2.73;2.53;;;;;;;;;;5065877;28;20278;-78
2022/01/05 02:26:46;;;;;;;3.37;2.13;;;;;;;;;;5066713;28;20497;-79
2022/01/05 02:29:12;;;;;;;5.60;2.50;;;;;;;;;;5054750;28;20453;-78
2022/01/05 02:31:38;;;;;;;0.97;0.90;;;7.10;1.00;;;;;;5054623;28;21033;-79
2022/01/05 02:34:04;;;;;;;0.40;0.40;;;7.10;1.00;;;;;;5059882;28;20461;-79
2022/01/05 02:36:30;;;;;;;0.63;0.63;;;6.70;1.00;;;;;;5066315;28;20238;-79
2022/01/05 02:38:56;;;;;;;0.80;0.50;;;6.40;1.00;;;;;;5061154;28;20928;-79
2022/01/05 02:41:22;;;;;;;0.50;0.50;;;;;;;;;;5058265;28;20524;-78
2022/01/05 02:43:49;;;;;;;0.50;0.50;;;5.80;1.00;;;;;;5060510;28;20426;-78
2022/01/05 02:46:20;;;;;;;0.50;0.40;;;5.60;1.00;;;;;;5066370;28;20434;-77
2022/01/05 02:48:50;;;;;;;0.60;0.50;;;5.60;1.00;;;;;;5055870;28;20422;-77
2022/01/05 02:51:16;;;;;;;0.50;0.50;;;5.50;1.00;;;;;;5065948;28;20440;-76
2022/01/05 02:53:42;;;;;;;2.83;0.70;;;5.50;1.00;;;;;;5056692;28;20461;-76
2022/01/05 02:56:09;;;;;;;0.40;0.40;;;5.40;1.00;;;;;;5068902;28;20657;-76
2022/01/05 02:58:35;;;;;;;5.60;0.70;;;5.40;1.00;;;;;;5069384;28;20512;-76
2022/01/05 03:01:01;;;;;;;0.70;0.70;;;;;;;;;;5056270;28;20902;-78
2022/01/05 03:03:26;;;;;;;0.70;0.70;;;5.40;1.00;;;;;;5054134;28;20719;-78
2022/01/05 03:05:52;;;;;;;0.70;0.70;;;5.40;1.00;;;;;;5065967;28;20429;-78
2022/01/05 03:08:18;;;;;;;0.90;0.60;;;5.40;1.00;;;;;;5056642;28;20266;-78
2022/01/05 03:10:43;;;;;;;0.53;0.53;;;5.40;1.00;;;;;;5073301;28;20190;-78
2022/01/05 03:13:09;;;;;;;0.80;0.80;;;;;;;;;;5062127;28;20261;-78
2022/01/05 03:15:35;;;;;;;3.60;0.80;;;;;;;;;;5068929;28;20183;-78
2022/01/05 03:18:03;;;;;;;0.70;0.70;;;5.60;1.00;;;;;;5057060;28;20433;-76
2022/01/05 03:20:30;;;;;;;0.80;0.70;;;;;;;;;;5055948;28;20426;-76
2022/01/05 03:22:56;;;;;;;0.70;0.70;;;;;;;;;;5066836;28;20515;-76
2022/01/05 03:25:22;;;;;;;4.17;0.90;;;;;;;;;;5069954;28;20971;-76
2022/01/05 03:27:49;;;;;;;0.70;0.70;;;5.50;1.00;;;;;;5057368;28;20509;-76
2022/01/05 03:30:18;;;;;;;0.90;0.70;;;5.60;1.00;;;;;;5053270;28;20465;-76
2022/01/05 03:33:09;;;;;;;1.33;0.70;;;5.50;1.00;;;;;;5055627;28;20473;-78
2022/01/05 03:35:32;;;;;;;0.60;0.60;;;5.50;1.00;;;;;;5059122;28;20430;-78
2022/01/05 03:37:58;;;;;;;0.60;0.60;;;5.40;1.00;;;;;;5057686;28;20924;-78
2022/01/05 03:40:25;;;;;;;1.33;0.83;;;5.50;1.00;;;;;;5069004;28;20426;-78
2022/01/05 03:42:51;;;;;;;0.50;0.50;;;5.50;1.00;;;;;;5058111;28;20440;-78
2022/01/05 03:45:17;;;;;;;0.50;0.50;;;5.40;1.00;;;;;;5070968;28;20428;-78
2022/01/05 03:47:43;;;;;;;0.50;0.50;;;5.40;1.00;;;;;;5059018;28;20949;-77
2022/01/05 03:50:09;;;;;;;1.07;0.70;;;5.40;1.00;;;;;;5055224;28;20426;-77
2022/01/05 03:52:35;;;;;;;0.50;0.50;;;5.40;1.00;;;;;;5056309;28;20609;-77
2022/01/05 03:55:01;;;;;;;1.23;0.60;;;5.30;1.00;;;;;;5063260;28;20422;-76
2022/01/05 03:57:27;;;;;;;0.97;0.70;;;5.30;1.00;;;;;;5055665;28;20437;-77
2022/01/05 03:59:53;;;;;;;0.40;0.40;;;5.40;1.00;;;;;;5064266;28;20796;-77
2022/01/05 04:02:20;;;;;;;0.60;0.60;;;5.20;1.00;;;;;;5054870;28;20190;-77
2022/01/05 04:04:46;;;;;;;1.60;0.87;;;;;;;;;;5052472;28;20430;-77
2022/01/05 04:07:13;;;;;;;1.53;0.60;;;;;;;;;;5061555;28;20516;-76
2022/01/05 04:09:45;;;;;;;0.97;0.50;;;5.10;1.00;;;;;;5064982;28;20429;-76
2022/01/05 04:12:11;;;;;;;1.07;0.60;;;5.10;1.00;;;;;;5056754;28;20934;-76
2022/01/05 04:14:36;;;;;;;0.70;0.60;;;5.10;1.00;;;;;;5059405;28;20461;-76
2022/01/05 04:17:02;;;;;;;0.40;0.40;;;;;;;;;;5060023;28;20187;-78
2022/01/05 04:19:28;;;;;;;0.40;0.40;;;;;;;;;;5061807;28;20250;-78
2022/01/05 04:21:54;;;;;;;0.60;0.50;;;;;;;;;;5082153;28;20525;-78
2022/01/05 04:24:20;;;;;;;0.60;0.60;;;;;;;;;;5055683;28;20879;-78
2022/01/05 04:26:46;;;;;;;2.80;0.87;;;;;;;;;;5056964;28;20429;-78
2022/01/05 04:29:12;;;;;;;1.33;0.53;;;5.00;1.00;;;;;;5060656;28;20426;-78
2022/01/05 04:31:37;;;;;;;0.60;0.60;;;4.90;1.00;;;;;;5052195;28;20437;-78
2022/01/05 04:34:03;;;;;;;0.40;0.40;;;4.90;1.00;;;;;;5057298;28;20576;-78
2022/01/05 04:36:29;;;;;;;0.70;0.70;;;4.90;1.00;;;;;;5049213;28;20210;-78
2022/01/05 04:38:55;;;;;;;0.73;0.73;;;4.80;1.00;;;;;;5061767;28;20433;-78
2022/01/05 04:41:21;;;;;;;1.03;0.70;;;;;;;;;;5070199;28;20512;-78
2022/01/05 04:43:47;;;;;;;0.50;0.50;;;;;;;;;;5066547;28;20637;-78
2022/01/05 04:46:13;;;;;;;0.60;0.60;;;;;;;;;;5049006;28;20742;-78
2022/01/05 04:48:39;;;;;;;0.95;0.65;;;;;;;;;;5063103;28;20504;-78
2022/01/05 04:51:05;;;;;;;4.17;1.20;;;;;;;;;;5050172;28;20199;-78
2022/01/05 04:53:31;;;;;;;0.93;0.90;;;;;;;;;;5055697;28;20494;-78
2022/01/05 04:55:57;;;;;;;1.23;0.83;;;;;;;;;;5059076;28;20504;-78
2022/01/05 04:58:23;;;;;;;1.37;1.00;;;;;;;;;;5067349;28;20414;-78
2022/01/05 05:00:49;;;;;;;6.03;1.37;;;;;;;;;;5070658;28;20919;-78
2022/01/05 05:03:15;;;;;;;2.90;1.30;;;;;;;;;;5055782;28;20501;-77
2022/01/05 05:05:41;;;;;;;6.70;1.20;;;;;;;;;;5080034;28;20425;-77
2022/01/05 05:08:07;;;;;;;1.90;1.10;;;;;;;;;;5071883;28;20424;-77
2022/01/05 05:10:33;;;;;;;1.33;0.90;;;;;;;;;;5069877;28;20422;-76
2022/01/05 05:12:59;;;;;;;2.97;1.10;;;;;;;;;;5058245;28;20465;-77
2022/01/05 05:15:25;;;;;;;5.33;1.00;;;;;;;;;;5060617;28;20425;-77
2022/01/05 05:17:51;;;;;;;1.30;1.17;;;;;;;;;;5062209;28;20422;-77
2022/01/05 05:20:17;;;;;;;1.70;1.60;;;4.70;1.00;;;;;;5060048;28;20443;-78
2022/01/05 05:22:43;;;;;;;3.23;1.40;;;4.70;1.00;;;;;;5057977;28;20425;-78
2022/01/05 05:25:09;;;;;;;2.97;1.33;;;4.70;1.00;;;;;;5041705;28;20184;-78
2022/01/05 05:27:34;;;;;;;1.30;1.20;;;4.60;1.00;;;;;;5054003;28;20449;-78
2022/01/05 05:30:00;;;;;;;2.50;1.83;;;4.70;1.00;;;;;;5054526;28;20469;-78
2022/01/05 05:32:26;;;;;;;1.77;1.43;;;4.70;1.00;;;;;;5053577;28;20183;-76
2022/01/05 05:34:52;;;;;;;2.67;1.07;;;;;;;;;;5057767;28;20452;-76
2022/01/05 05:37:18;;;;;;;2.10;1.23;;;;;;;;;;5057314;28;20262;-77
2022/01/05 05:39:44;;;;;;;2.00;1.43;;;;;;;;;;5065497;28;20453;-77
2022/01/05 05:42:10;;;;;;;1.63;1.53;;;;;;;;;;5058568;28;20438;-77
2022/01/05 05:44:36;;;;;;;3.72;1.48;;;;;;;;;;5059795;28;20476;-76
2022/01/05 05:47:05;;;;;;;3.57;1.70;;;4.70;1.00;;;;;;5067156;28;20261;-76
2022/01/05 05:49:32;;;;;;;3.15;1.77;;;4.60;1.00;;;;;;5060427;28;20425;-77
2022/01/05 05:51:58;;;;;;;3.83;1.37;;;;;;;;;;5067411;28;20184;-77
2022/01/05 05:54:23;;;;;;;1.90;1.47;;;4.60;1.00;;;;;;5062229;28;20508;-78
2022/01/05 05:56:49;;;;;;;1.73;1.30;;;;;;;;;;5056705;28;20941;-77
2022/01/05 05:59:15;;;;;;;3.00;1.77;;;4.60;1.00;;;;;;5065122;28;20197;-78
2022/01/05 06:01:42;;;;;;;4.60;1.77;;;4.50;1.00;;;;;;5061415;28;20458;-77
2022/01/05 06:04:08;;;;;;;3.70;1.50;;;4.50;1.00;;;;;;5057110;28;20584;-76
2022/01/05 06:06:34;;;;;;;4.00;1.80;;;;;;;;;;5059982;28;20222;-76
2022/01/05 06:08:59;;;;;;;3.65;1.70;;;4.50;1.00;;;;;;5056492;28;20482;-76
2022/01/05 06:11:25;;;;;;;2.33;1.33;;;4.50;1.00;;;;;;5061331;28;20191;-76
2022/01/05 06:13:52;;;;;;;4.60;1.60;;;4.50;1.00;;;;;;5072642;28;20572;-76
2022/01/05 06:16:18;;;;;;;2.83;1.20;;;;;;;;;;5055642;28;20180;-76
2022/01/05 06:18:44;;;;;;;1.95;1.38;;;;;;;;;;5063255;28;20183;-77
2022/01/05 06:21:10;;;;;;;2.45;1.20;;;4.20;1.00;;;;;;5063169;28;20187;-76
2022/01/05 06:23:36;;;;;;;3.17;1.10;;;;;;;;;;5053587;28;20188;-76
2022/01/05 06:26:02;;;;;;;4.57;1.00;;;;;;;;;;5066793;28;20267;-76
2022/01/05 06:28:28;;;;;;;5.40;1.20;;;;;;;;;;5060024;28;20413;-76
2022/01/05 06:30:53;;;;;;;1.77;1.30;;;4.00;1.00;;;;;;5057864;28;20445;-76
2022/01/05 06:33:19;;;;;;;0.80;0.80;;;4.00;1.00;;;;;;5063329;28;20478;-77
2022/01/05 06:35:45;;;;;;;1.27;0.90;;;4.00;1.00;;;;;;5057522;28;20195;-77
2022/01/05 06:38:10;;;;;;;4.67;1.97;;;4.00;1.00;;;;;;5053621;28;20195;-77
2022/01/05 06:40:38;;;;;;;3.80;1.00;;;3.90;1.00;;;;;;5060349;28;20187;-77
2022/01/05 06:43:03;;;;;;;3.72;1.13;;;3.80;1.00;;;;;;5054187;28;20936;-78
2022/01/05 06:45:30;;;;;;;1.07;0.80;;;;;;;;;;5054470;28;20192;-77
2022/01/05 06:47:55;;;;;;;4.10;0.98;;;3.70;1.00;;;;;;5057044;28;20270;-77
2022/01/05 06:50:21;;;;;;;1.63;0.80;;;;;;;;;;5046859;28;20776;-77
2022/01/05 06:52:48;;;;;;;1.70;1.00;;;;;;;;;;5053052;28;20204;-76
2022/01/05 06:55:14;;;;;;;5.85;0.98;;;;;;;;;;5048882;28;20225;-76
2022/01/05 06:57:44;;;;;;;0.80;0.80;;;3.90;1.00;;;;;;5068299;28;20192;-76
2022/01/05 07:00:11;;;;;;;6.45;1.13;;;3.90;1.00;;;;;;5050084;28;20648;-76
2022/01/05 07:02:38;;;;;;;3.38;1.08;;;3.90;1.00;;;;;;5059320;28;20260;-77
2022/01/05 07:05:05;;;;;;;2.25;0.80;;;3.80;1.00;;;;;;5057887;28;20701;-77
2022/01/05 07:07:31;;;;;;;5.10;1.55;;;;;;;;;;5056945;28;20211;-78
2022/01/05 07:09:57;;;;;;;2.22;1.10;;;;;;;;;;5057370;28;20179;-78
2022/01/05 07:12:23;;;;;;;2.10;1.10;;;3.70;1.00;;;;;;5063091;28;20183;-78
2022/01/05 07:14:49;;;;;;;2.97;0.95;;;3.70;1.00;;;;;;5069721;28;20207;-78
2022/01/05 07:17:15;;;;;;;2.55;0.80;;;3.60;1.00;;;;;;5063956;28;20182;-78
2022/01/05 07:19:41;;;;;;;1.60;1.10;;;3.60;1.00;;;;;;5065261;28;20369;-78
2022/01/05 07:22:10;;;;;;;3.80;1.03;;;3.60;1.00;;;;;;5072843;28;20413;-78
2022/01/05 07:24:36;;;;;;;1.48;1.08;;;3.50;1.00;;;;;;5071783;28;20187;-77
2022/01/05 07:27:02;;;;;;;1.45;0.93;;;3.50;1.00;;;;;;5057850;28;20541;-78
2022/01/05 07:29:29;;;;;;;2.80;0.90;;;3.50;1.00;;;;;;5066097;28;20539;-78
2022/01/05 07:31:54;;;;;;;3.47;1.03;;;3.40;1.00;;;;;;5060360;28;20183;-78
2022/01/05 07:34:20;;;;;;;2.00;1.10;;;3.40;1.00;;;;;;5060431;28;20561;-77
2022/01/05 07:36:46;;;;;;;3.43;1.20;;;;;;;;;;5057504;28;20233;-76
2022/01/05 07:39:12;;;;;;;0.83;0.70;;;;;;;;;;5066496;28;20405;-76
2022/01/05 07:41:38;;;;;;;4.05;1.20;;;;;;;;;;5057703;28;20409;-76
2022/01/05 07:44:06;;;;;;;3.00;0.80;;;3.40;1.00;;;;;;5053064;28;20184;-76
2022/01/05 07:46:35;;;;;;;1.08;0.98;;;3.40;1.00;;;;;;5052682;28;20179;-76
2022/01/05 07:49:02;;;;;;;3.03;1.13;;;3.30;1.00;;;;;;5052978;28;20164;-76
2022/01/05 07:51:29;;;;;;;0.90;0.90;;;3.20;1.00;;;;;;5052037;28;20183;-76
2022/01/05 07:53:54;;;;;;;1.13;1.02;;;3.10;1.00;;;;;;5063303;28;20196;-77
2022/01/05 07:56:20;;;;;;;1.93;1.07;;;;;;;;;;5051695;28;20194;-77
2022/01/05 07:58:48;;;;;;;1.10;1.10;;;;;;;;;;5072491;28;20653;-77
2022/01/05 08:01:18;;;;;;;4.28;1.27;;;;;;;;;;5058930;28;20410;-76
2022/01/05 08:03:44;;;;;;;2.63;1.00;;;;;;;;;;5069632;28;20186;-78
2022/01/05 08:06:09;;;;;;;2.03;1.27;;;3.00;1.00;;;;;;5072470;28;20265;-78
2022/01/05 08:08:35;;;;;;;5.80;1.10;;;2.90;1.00;;;;;;5071207;28;20433;-78
2022/01/05 08:11:01;;;;;;;1.13;0.93;;;2.90;1.00;;;;;;5070293;28;20197;-78
2022/01/05 08:13:26;;;;;;;2.37;1.10;;;2.80;1.00;;;;;;5066923;28;20207;-78
2022/01/05 08:15:53;;;;;;;2.77;1.17;;;2.80;1.00;;;;;;5066577;28;20233;-78
2022/01/05 08:18:20;;;;;;;2.83;1.10;;;2.80;1.00;;;;;;5076330;28;20577;-78
2022/01/05 08:20:47;;;;;;;2.20;1.27;;;2.80;1.00;;;;;;5076626;28;20214;-78
2022/01/05 08:23:23;;;;;;;1.73;1.08;;;2.80;1.00;;;;;;5076298;28;20261;-78
2022/01/05 08:25:50;;;;;;;5.32;1.30;;;2.90;1.00;;;;;;5066123;28;20199;-78
2022/01/05 08:28:17;;;;;;;3.03;1.20;;;2.90;1.00;;;;;;5065713;28;20658;-79
2022/01/05 08:30:47;;;;;;;0.93;0.70;;;3.00;1.00;;;;;;5063334;28;20651;-78
2022/01/05 08:33:17;;;;;;;0.80;0.70;;;3.00;1.00;;;;;;5066533;28;20209;-78
2022/01/05 08:35:45;;;;;;;1.17;0.98;;;3.10;1.00;;;;;;5056863;28;20183;-78
2022/01/05 08:38:15;;;;;;;1.65;1.08;;;3.10;1.00;;;;;;5057219;28;20173;-78
2022/01/05 08:40:45;;;;;;;1.00;0.90;;;3.10;1.00;;;;;;5087604;28;20306;-78
2022/01/05 08:43:13;;;;;;;1.27;0.90;;;3.20;1.00;;;;;;5075703;28;20182;-77
2022/01/05 08:45:40;;;;;;;0.68;0.60;;;3.20;1.00;;;;;;5062336;28;20188;-79
2022/01/05 08:48:06;;;;;;;2.60;0.90;;;3.20;1.00;;;;;;5075693;28;20660;-78
2022/01/05 08:50:33;;;;;;;1.73;1.33;;;3.20;1.00;;;;;;5075477;28;20210;-78
2022/01/05 08:53:01;;;;;;;4.82;0.82;;;3.30;1.00;;;;;;5055733;28;20551;-78
2022/01/05 08:55:32;;;;;;;2.28;1.20;;;3.30;1.00;;;;;;5045182;28;20191;-77
2022/01/05 08:57:58;;;;;;;4.15;1.27;;;3.40;1.00;;;;;;5060742;28;20203;-78
2022/01/05 09:00:24;;;;;;;5.38;1.15;;;3.40;1.00;;;;;;5071234;28;20191;-79
2022/01/05 09:02:50;;;;;;;1.10;0.93;;;3.40;1.00;;;;;;5063242;28;20214;-78
2022/01/05 09:05:17;;;;;;;1.03;0.70;;;;;;;;;;5070557;28;20187;-76
2022/01/05 09:07:45;;;;;;;5.63;1.23;;;3.50;1.00;;;;;;5064394;28;20453;-76
2022/01/05 09:10:12;;;;;;;4.10;1.08;;;;;;;;;;5057149;28;20245;-76
2022/01/05 09:12:38;;;;;;;3.80;1.25;;;3.60;1.00;;;;;;5057202;28;20176;-76
2022/01/05 09:15:06;;;;;;;10.68;1.50;;;3.60;1.00;;;;;;5058895;28;20556;-76
2022/01/05 09:17:32;;;;;;;0.70;0.70;;;3.70;1.00;;;;;;5057883;28;20176;-76
2022/01/05 09:19:58;;;;;;;3.20;1.15;;;4.00;1.00;;;;;;5059634;28;20617;-77
2022/01/05 09:22:24;;;;;;;3.65;1.10;;;4.00;1.00;;;;;;5060647;28;20175;-76
2022/01/05 09:24:51;;;;;;;7.85;1.30;;;4.20;1.00;;;;;;5057617;28;20236;-76
2022/01/05 09:27:18;;;;;;;8.17;1.30;;;4.40;1.00;;;;;;5048958;28;20609;-76
2022/01/05 09:29:45;;;;;;;3.00;1.10;;;4.40;1.00;;;;;;5078603;28;20425;-76
2022/01/05 09:32:11;;;;;;;8.80;1.80;;;4.60;1.00;;;;;;5065159;28;20967;-76
2022/01/05 09:34:40;;;;;;;8.03;1.30;;;4.70;1.00;;;;;;5070445;28;20456;-76
2022/01/05 09:37:20;;;;;;;2.50;1.10;;;4.70;1.00;;;;;;5062108;28;20429;-76
2022/01/05 09:42:33;;;;;;;3.20;1.03;;;4.70;1.00;;;;;;5057689;28;20440;-76
2022/01/05 09:45:00;;;;;;;1.65;1.00;;;4.90;1.00;;;;;;5058119;28;20414;-76
2022/01/05 09:47:44;;;;;;;1.60;1.07;;;4.90;1.00;;;;;;5059471;28;20286;-78
2022/01/05 09:50:15;;;;;;;2.25;0.80;;;5.00;1.00;;;;;;5051198;28;20418;-77
2022/01/05 09:52:45;;;;;;;1.60;1.13;;;5.00;1.00;;;;;;5065353;28;20179;-75
2022/01/05 09:55:15;;;;;;;4.78;1.00;;;4.90;1.00;;;;;;5059963;28;20433;-76
2022/01/05 09:57:45;;;;;;;2.33;0.80;;;4.90;1.00;;;;;;5028113;28;20184;-80
2022/01/05 10:00:14;;;;;;;1.90;1.20;;;5.10;1.00;;;;;;5063559;28;20429;-86
2022/01/05 10:02:43;;;;;;;1.53;1.13;;;5.00;1.00;;;;;;5060548;28;20444;-81
2022/01/05 10:05:11;;;;;;;2.63;1.50;;;5.00;1.00;;;;;;5059660;28;20402;-85
2022/01/05 10:07:38;;;;;;;10.18;0.82;;;5.00;1.00;;;;;;5054743;28;20497;-86
2022/01/05 10:10:05;;;;;;;3.23;0.93;;;4.90;1.00;;;;;;5054475;28;20627;-83
2022/01/05 10:12:32;;;;;;;4.30;0.70;;;4.80;1.00;;;;;;5063420;28;20405;-84
2022/01/05 10:14:58;;;;;;;3.80;1.60;;;;;;;;;;5074527;28;20425;-84
2022/01/05 10:17:26;;;;;;;2.97;1.05;;;4.70;1.00;;;;;;5074324;28;20216;-83
2022/01/05 10:20:08;;;;;;;0.80;0.80;;;4.60;1.00;;;;;;5070475;28;20182;-76
2022/01/05 10:22:42;;;;;;;6.13;0.93;;;4.70;1.00;;;;;;5066433;28;20438;-77
2022/01/05 10:25:21;;;;;;;0.80;0.80;;;4.70;1.00;;;;;;5073671;28;20479;-76
2022/01/05 10:28:01;;;;;;;0.80;0.77;;;4.60;1.00;;;;;;5056977;28;20459;-76
2022/01/05 10:30:42;;;;;;;3.77;1.07;;;4.50;1.00;;;;;;5053331;28;20460;-75
2022/01/05 10:33:08;;;;;;;1.50;1.20;;;4.50;1.00;;;;;;5067618;28;20501;-78
2022/01/05 10:35:34;;;;;;;8.00;1.10;;;4.60;1.00;;;;;;5065627;28;20218;-79
2022/01/05 10:38:04;;;;;;;0.70;0.70;;;4.50;1.00;;;;;;5052484;28;20422;-77
2022/01/05 10:40:33;;;;;;;1.40;0.93;;;4.60;1.00;;;;;;5055760;28;20423;-77
2022/01/05 10:43:05;;;;;;;1.20;0.82;;;4.60;1.00;;;;;;5073253;28;20775;-76
2022/01/05 10:45:46;;;;;;;0.75;0.63;;;4.60;1.00;;;;;;5070418;28;20198;-77
2022/01/05 10:48:15;;;;;;;3.73;2.17;;;4.70;1.00;;;;;;5070287;28;20232;-77
2022/01/05 10:50:42;;;;;;;19.97;1.43;;;4.60;1.00;;;;;;5073110;28;20409;-77
2022/01/05 10:53:08;;;;;;;0.50;0.50;;;4.60;1.00;;;;;;5071754;28;21029;-77
2022/01/05 10:55:42;;;;;;;1.07;1.00;;;4.60;1.00;;;;;;5050033;28;20971;-76
2022/01/05 10:58:17;;;;;;;1.20;0.90;;;4.70;1.00;;;;;;5047262;28;20928;-76
2022/01/05 11:00:54;;;;;;;2.80;1.27;;;4.70;1.00;;;;;;5061376;28;20417;-76
2022/01/05 11:03:39;;;;;;;1.30;0.63;;;4.70;1.00;;;;;;5065660;28;20559;-76
2022/01/05 11:06:12;;;;;;;0.40;0.40;;;4.70;1.00;;;;;;5043486;28;20778;-76
2022/01/05 11:08:56;;;;;;;2.72;1.02;;;4.70;1.00;;;;;;5062260;28;20459;-76
2022/01/05 11:11:42;;;;;;;1.13;0.80;;;4.70;1.00;;;;;;5049559;28;20187;-76
2022/01/05 11:14:30;;;;;;;1.37;1.00;;;4.80;1.00;;;;;;5063278;28;20241;-76
2022/01/05 11:16:58;;;;;;;6.53;0.70;;;4.80;1.00;;;;;;5063771;28;20471;-77
2022/01/05 11:19:39;;;;;;;1.13;0.90;;;4.90;1.00;;;;;;5063730;28;20410;-76
2022/01/05 11:22:14;;;;;;;4.93;0.83;;;4.90;1.00;;;;;;5055475;28;20424;-76
2022/01/05 11:24:54;;;;;;;0.83;0.70;;;4.90;1.00;;;;;;5064074;28;20425;-77
2022/01/05 11:27:27;;;;;;;1.03;0.63;;;5.10;1.00;;;;;;5059676;28;20672;-77
2022/01/05 11:29:56;;;;;;;2.40;1.10;;;5.00;1.00;;;;;;5055042;28;20789;-76
2022/01/05 11:32:26;;;;;;;0.50;0.50;;;5.10;1.00;;;;;;5061734;28;20629;-76
2022/01/05 11:34:52;;;;;;;2.10;1.00;;;5.10;1.00;;;;;;5053562;28;20548;-77
2022/01/05 11:37:18;;;;;;;0.43;0.43;;;5.10;1.00;;;;;;5055831;28;20509;-76
2022/01/05 11:39:50;;;;;;;1.70;0.50;;;5.20;1.00;;;;;;5059773;28;20423;-77
2022/01/05 11:42:23;;;;;;;12.70;1.10;;;5.20;1.00;;;;;;5056471;28;20430;-78
2022/01/05 11:44:51;;;;;;;2.20;0.60;;;5.20;1.00;;;;;;5055110;28;20421;-77
2022/01/05 11:47:29;;;;;;;2.13;0.63;;;5.20;1.00;;;;;;5073982;28;20479;-77
2022/01/05 11:50:15;;;;;;;3.17;0.97;;;5.10;1.00;;;;;;5060878;28;20455;-77
2022/01/05 11:52:58;;;;;;;3.90;1.00;;;5.10;1.00;;;;;;5067195;28;20424;-78
2022/01/05 11:55:24;;;;;;;0.67;0.67;;;5.20;1.00;;;;;;5054980;28;20712;-76
2022/01/05 11:58:15;;;;;;;1.00;1.00;;;5.20;1.00;;;;;;5068408;28;20994;-75
2022/01/05 12:00:41;;;;;;;1.20;1.10;;;5.30;1.00;;;;;;5060923;28;20429;-76
2022/01/05 12:03:06;;;;;;;0.70;0.70;;;5.30;1.00;;;;;;5066938;28;20452;-77
2022/01/05 12:06:04;;;;;;;2.67;0.67;;;5.30;1.00;;;;;;5066215;28;20437;-78
2022/01/05 12:08:50;;;;;;;0.70;0.47;;;5.30;1.00;;;;;;5085769;28;20186;-78
2022/01/05 12:11:39;;;;;;;4.67;1.10;;;5.20;1.00;;;;;;5066051;28;20424;-77
2022/01/05 12:14:07;;;;;;;2.50;0.90;;;5.30;1.00;;;;;;5063661;28;20457;-75
2022/01/05 12:16:59;;;;;;;1.33;0.90;;;5.30;1.00;;;;;;5054590;28;20425;-76
2022/01/05 12:19:32;;;;;;;1.67;0.97;;;5.40;1.00;;;;;;5004117;28;20408;-76
2022/01/05 12:22:01;;;;;;;4.00;1.00;;;5.50;1.00;;;;;;5001919;28;20428;-76
2022/01/05 12:24:57;;;;;;;2.47;0.70;;;5.60;1.00;;;;;;4996752;28;20454;-76
2022/01/05 12:27:37;;;;;;;1.13;0.60;;;5.60;1.00;;;;;;5003037;28;20183;-77
2022/01/05 12:30:22;;;;;;;1.20;1.10;;;5.70;1.00;;;;;;5007213;28;20429;-76
2022/01/05 12:33:08;;;;;;;0.87;0.60;;;5.70;1.00;;;;;;4924836;29;20498;-77
2022/01/05 12:35:46;;;;;;;1.70;0.70;;;5.80;1.00;;;;;;4917390;29;20517;-76
2022/01/05 12:38:29;;;;;;;0.60;0.50;;;5.70;1.00;;;;;;4924045;29;20434;-77
2022/01/05 12:40:55;;;;;;;1.03;0.77;;;5.80;1.00;;;;;;4930707;29;20451;-76
2022/01/05 12:43:20;;;;;;;1.27;0.70;;;5.80;1.00;;;;;;4932196;29;20841;-76
2022/01/05 12:45:49;;;;;;;2.27;0.90;;;5.80;1.00;;;;;;4920479;29;20251;-76
2022/01/05 12:48:41;;;;;;;1.47;1.27;;;5.80;1.00;;;;;;4920131;29;20275;-78
2022/01/05 12:51:44;;;;;;;3.87;1.00;;;5.70;1.00;;;;;;4917592;29;20808;-77
2022/01/05 12:54:29;;;;;;;2.27;0.70;;;5.70;1.00;;;;;;4917012;29;20467;-76
2022/01/05 12:57:03;;;;;;;5.20;0.60;;;5.60;1.00;;;;;;4956421;28;20438;-76
2022/01/05 12:59:33;;;;;;;1.90;1.03;;;5.60;1.00;;;;;;4973981;28;20432;-76
2022/01/05 13:02:06;;;;;;;1.67;0.70;;;5.50;1.00;;;;;;4972943;28;20433;-76
2022/01/05 13:04:34;;;;;;;2.10;0.90;;;5.60;1.00;;;;;;4976292;28;20437;-76
2022/01/05 13:07:03;;;;;;;0.60;0.60;;;5.50;1.00;;;;;;4974117;28;20444;-75
2022/01/05 13:09:31;;;;;;;2.10;1.30;;;5.50;1.00;;;;;;4997187;28;20442;-75
2022/01/05 13:12:08;;;;;;;2.95;0.68;;;5.60;1.00;;;;;;5062362;28;20801;-75
2022/01/05 13:14:48;;;;;;;1.03;0.60;;;5.60;1.00;;;;;;5061098;28;20199;-75
2022/01/05 13:17:20;;;;;;;2.03;0.70;;;5.60;1.00;;;;;;5045345;28;20418;-75
2022/01/05 13:19:55;;;;;;;3.07;1.10;;;5.60;1.00;;;;;;5059236;28;20426;-77
2022/01/05 13:22:25;;;;;;;2.20;0.90;;;5.60;1.00;;;;;;5074111;28;20416;-76
2022/01/05 13:25:03;;;;;;;4.60;0.70;;;5.50;1.00;;;;;;5069243;28;20433;-75
2022/01/05 13:27:29;;;;;;;2.40;1.00;;;;;;;;;;5055553;28;20441;-75
2022/01/05 13:29:59;;;;;;;0.40;0.40;;;5.50;1.00;;;;;;5059170;28;20428;-78
2022/01/05 13:32:28;;;;;;;3.27;1.07;;;5.50;1.00;;;;;;5063850;28;20453;-78
2022/01/05 13:35:19;;;;;;;0.60;0.40;;;5.50;1.00;;;;;;5063274;28;20454;-77
2022/01/05 13:38:02;;;;;;;0.57;0.57;;;;;;;;;;5052963;28;20418;-88